sensor_id;sensor_type;location;lat;lon;timestamp;pressure;altitude;pressure_sealevel;temperature;humidity
61870;BME280;47810;42.264;23.826;2023-05-20T00:00:50;94088.88;;;11.00;82.11
61870;BME280;47810;42.264;23.826;2023-05-20T00:03:17;94090.06;;;11.23;81.50
61870;BME280;47810;42.264;23.826;2023-05-20T00:05:44;94091.78;;;11.24;81.06
61870;BME280;47810;42.264;23.826;2023-05-20T00:08:10;94085.00;;;11.06;81.88
61870;BME280;47810;42.264;23.826;2023-05-20T00:10:35;94080.16;;;10.85;82.72
61870;BME280;47810;42.264;23.826;2023-05-20T00:13:01;94084.88;;;10.66;83.67
61870;BME280;47810;42.264;23.826;2023-05-20T00:15:27;94072.56;;;10.93;82.55
61870;BME280;47810;42.264;23.826;2023-05-20T00:17:53;94070.03;;;10.92;82.29
61870;BME280;47810;42.264;23.826;2023-05-20T00:20:18;94069.59;;;10.85;82.56
61870;BME280;47810;42.264;23.826;2023-05-20T00:22:44;94074.38;;;10.93;83.21
61870;BME280;47810;42.264;23.826;2023-05-20T00:25:10;94061.69;;;11.12;82.17
61870;BME280;47810;42.264;23.826;2023-05-20T00:27:35;94063.81;;;11.20;81.88
61870;BME280;47810;42.264;23.826;2023-05-20T00:30:01;94056.41;;;11.12;82.82
61870;BME280;47810;42.264;23.826;2023-05-20T00:32:26;94058.53;;;11.20;81.98
61870;BME280;47810;42.264;23.826;2023-05-20T00:34:57;94062.84;;;11.35;81.40
61870;BME280;47810;42.264;23.826;2023-05-20T00:37:23;94061.41;;;11.44;80.74
61870;BME280;47810;42.264;23.826;2023-05-20T00:39:48;94050.31;;;11.52;80.26
61870;BME280;47810;42.264;23.826;2023-05-20T00:42:24;94047.63;;;11.66;78.26
61870;BME280;47810;42.264;23.826;2023-05-20T00:44:50;94046.19;;;11.48;78.92
61870;BME280;47810;42.264;23.826;2023-05-20T00:47:21;94043.09;;;11.14;81.36
61870;BME280;47810;42.264;23.826;2023-05-20T00:49:48;94046.47;;;11.16;82.42
61870;BME280;47810;42.264;23.826;2023-05-20T00:52:14;94050.06;;;11.15;82.38
61870;BME280;47810;42.264;23.826;2023-05-20T00:54:40;94049.88;;;11.18;81.64
61870;BME280;47810;42.264;23.826;2023-05-20T00:57:06;94049.63;;;11.35;80.87
61870;BME280;47810;42.264;23.826;2023-05-20T00:59:32;94050.91;;;11.42;80.00
61870;BME280;47810;42.264;23.826;2023-05-20T01:01:58;94054.38;;;11.30;81.19
61870;BME280;47810;42.264;23.826;2023-05-20T01:04:24;94060.06;;;11.24;81.26
61870;BME280;47810;42.264;23.826;2023-05-20T01:06:50;94051.38;;;11.22;81.53
61870;BME280;47810;42.264;23.826;2023-05-20T01:09:15;94050.38;;;11.37;79.69
61870;BME280;47810;42.264;23.826;2023-05-20T01:11:43;94044.59;;;11.18;81.00
61870;BME280;47810;42.264;23.826;2023-05-20T01:14:12;94047.31;;;11.16;82.22
61870;BME280;47810;42.264;23.826;2023-05-20T01:16:41;94038.94;;;11.10;82.14
61870;BME280;47810;42.264;23.826;2023-05-20T01:19:10;94044.19;;;11.24;81.22
61870;BME280;47810;42.264;23.826;2023-05-20T01:21:40;94039.13;;;11.21;80.18
61870;BME280;47810;42.264;23.826;2023-05-20T01:24:05;94038.75;;;11.13;80.38
61870;BME280;47810;42.264;23.826;2023-05-20T01:26:31;94028.38;;;10.83;81.03
61870;BME280;47810;42.264;23.826;2023-05-20T01:28:57;94021.63;;;10.50;82.26
61870;BME280;47810;42.264;23.826;2023-05-20T01:31:30;94020.19;;;10.59;82.80
61870;BME280;47810;42.264;23.826;2023-05-20T01:33:57;94032.06;;;10.66;80.45
61870;BME280;47810;42.264;23.826;2023-05-20T01:36:23;94027.13;;;10.88;79.70
61870;BME280;47810;42.264;23.826;2023-05-20T01:38:49;94029.06;;;10.99;79.20
61870;BME280;47810;42.264;23.826;2023-05-20T01:41:15;94037.09;;;10.98;79.27
61870;BME280;47810;42.264;23.826;2023-05-20T01:43:41;94044.81;;;11.01;79.43
61870;BME280;47810;42.264;23.826;2023-05-20T01:46:07;94052.16;;;11.10;78.77
61870;BME280;47810;42.264;23.826;2023-05-20T01:48:33;94057.16;;;11.14;78.99
61870;BME280;47810;42.264;23.826;2023-05-20T01:50:59;94053.25;;;11.20;79.25
61870;BME280;47810;42.264;23.826;2023-05-20T01:53:24;94055.69;;;10.96;79.27
61870;BME280;47810;42.264;23.826;2023-05-20T01:55:50;94062.41;;;10.87;80.03
61870;BME280;47810;42.264;23.826;2023-05-20T01:58:15;94056.97;;;10.76;80.25
61870;BME280;47810;42.264;23.826;2023-05-20T02:00:41;94051.09;;;10.71;80.63
61870;BME280;47810;42.264;23.826;2023-05-20T02:03:06;94050.72;;;10.77;80.37
61870;BME280;47810;42.264;23.826;2023-05-20T02:05:32;94028.22;;;10.57;81.33
61870;BME280;47810;42.264;23.826;2023-05-20T02:07:57;94032.56;;;10.44;81.95
61870;BME280;47810;42.264;23.826;2023-05-20T02:10:23;94027.75;;;10.36;82.74
61870;BME280;47810;42.264;23.826;2023-05-20T02:12:48;94016.63;;;10.45;82.35
61870;BME280;47810;42.264;23.826;2023-05-20T02:15:14;94029.34;;;10.39;80.49
61870;BME280;47810;42.264;23.826;2023-05-20T02:17:40;94027.75;;;10.36;77.68
61870;BME280;47810;42.264;23.826;2023-05-20T02:20:07;94029.25;;;10.55;76.21
61870;BME280;47810;42.264;23.826;2023-05-20T02:22:33;94034.16;;;10.61;75.65
61870;BME280;47810;42.264;23.826;2023-05-20T02:24:58;94040.72;;;10.68;75.65
61870;BME280;47810;42.264;23.826;2023-05-20T02:27:24;94040.16;;;10.77;77.17
61870;BME280;47810;42.264;23.826;2023-05-20T02:29:49;94040.91;;;10.79;79.70
61870;BME280;47810;42.264;23.826;2023-05-20T02:32:15;94035.44;;;10.82;78.86
61870;BME280;47810;42.264;23.826;2023-05-20T02:34:40;94041.50;;;10.56;80.46
61870;BME280;47810;42.264;23.826;2023-05-20T02:37:06;94035.00;;;10.61;80.31
61870;BME280;47810;42.264;23.826;2023-05-20T02:39:32;94032.16;;;10.64;79.79
61870;BME280;47810;42.264;23.826;2023-05-20T02:42:02;94026.03;;;10.49;79.05
61870;BME280;47810;42.264;23.826;2023-05-20T02:44:28;94022.94;;;10.57;77.35
61870;BME280;47810;42.264;23.826;2023-05-20T02:46:54;94024.16;;;10.52;74.97
61870;BME280;47810;42.264;23.826;2023-05-20T02:49:20;94024.16;;;10.52;74.53
61870;BME280;47810;42.264;23.826;2023-05-20T02:51:45;94025.66;;;10.56;73.66
61870;BME280;47810;42.264;23.826;2023-05-20T02:54:11;94021.97;;;10.72;73.45
61870;BME280;47810;42.264;23.826;2023-05-20T02:56:37;94024.16;;;10.66;73.42
61870;BME280;47810;42.264;23.826;2023-05-20T02:59:02;94029.25;;;10.69;72.97
61870;BME280;47810;42.264;23.826;2023-05-20T03:01:29;94027.38;;;10.57;73.87
61870;BME280;47810;42.264;23.826;2023-05-20T03:03:54;94033.75;;;10.53;74.36
61870;BME280;47810;42.264;23.826;2023-05-20T03:06:20;94033.13;;;10.63;74.13
61870;BME280;47810;42.264;23.826;2023-05-20T03:08:45;94033.53;;;10.99;73.90
61870;BME280;47810;42.264;23.826;2023-05-20T03:11:11;94039.56;;;10.86;72.71
61870;BME280;47810;42.264;23.826;2023-05-20T03:13:36;94031.66;;;10.86;72.20
61870;BME280;47810;42.264;23.826;2023-05-20T03:16:02;94038.16;;;10.81;72.10
61870;BME280;47810;42.264;23.826;2023-05-20T03:18:27;94038.63;;;10.87;72.85
61870;BME280;47810;42.264;23.826;2023-05-20T03:20:55;94041.72;;;10.94;72.89
61870;BME280;47810;42.264;23.826;2023-05-20T03:23:20;94040.16;;;10.91;74.26
61870;BME280;47810;42.264;23.826;2023-05-20T03:25:46;94031.16;;;10.94;74.89
61870;BME280;47810;42.264;23.826;2023-05-20T03:28:12;94034.56;;;10.96;73.38
61870;BME280;47810;42.264;23.826;2023-05-20T03:30:38;94034.09;;;10.89;72.33
61870;BME280;47810;42.264;23.826;2023-05-20T03:33:03;94037.75;;;11.01;71.40
61870;BME280;47810;42.264;23.826;2023-05-20T03:35:30;94036.31;;;11.10;71.83
61870;BME280;47810;42.264;23.826;2023-05-20T03:37:55;94044.34;;;11.08;71.88
61870;BME280;47810;42.264;23.826;2023-05-20T03:40:21;94043.31;;;11.11;73.74
61870;BME280;47810;42.264;23.826;2023-05-20T03:42:46;94046.16;;;10.93;76.01
61870;BME280;47810;42.264;23.826;2023-05-20T03:45:12;94042.44;;;10.69;77.53
61870;BME280;47810;42.264;23.826;2023-05-20T03:47:37;94048.50;;;10.57;77.47
61870;BME280;47810;42.264;23.826;2023-05-20T03:50:03;94050.84;;;10.47;79.03
61870;BME280;47810;42.264;23.826;2023-05-20T03:52:29;94051.25;;;10.11;79.34
61870;BME280;47810;42.264;23.826;2023-05-20T03:54:55;94056.72;;;10.08;80.42
61870;BME280;47810;42.264;23.826;2023-05-20T03:57:21;94068.63;;;10.15;81.84
61870;BME280;47810;42.264;23.826;2023-05-20T03:59:46;94068.66;;;10.29;81.94
61870;BME280;47810;42.264;23.826;2023-05-20T04:02:12;94072.53;;;10.38;80.79
61870;BME280;47810;42.264;23.826;2023-05-20T04:04:37;94080.91;;;10.44;81.17
61870;BME280;47810;42.264;23.826;2023-05-20T04:07:03;94077.16;;;10.34;80.91
61870;BME280;47810;42.264;23.826;2023-05-20T04:09:29;94076.75;;;10.26;80.52
61870;BME280;47810;42.264;23.826;2023-05-20T04:11:54;94069.91;;;10.38;80.79
61870;BME280;47810;42.264;23.826;2023-05-20T04:14:20;94071.31;;;10.43;80.58
61870;BME280;47810;42.264;23.826;2023-05-20T04:16:47;94056.22;;;10.45;80.60
61870;BME280;47810;42.264;23.826;2023-05-20T04:19:14;94053.59;;;10.60;80.81
61870;BME280;47810;42.264;23.826;2023-05-20T04:21:41;94043.19;;;10.42;81.28
61870;BME280;47810;42.264;23.826;2023-05-20T04:24:07;94039.63;;;10.58;81.30
61870;BME280;47810;42.264;23.826;2023-05-20T04:26:32;94048.06;;;10.77;82.68
61870;BME280;47810;42.264;23.826;2023-05-20T04:29:00;94046.91;;;10.95;82.52
61870;BME280;47810;42.264;23.826;2023-05-20T04:31:28;94051.97;;;11.13;82.11
61870;BME280;47810;42.264;23.826;2023-05-20T04:33:55;94052.78;;;11.28;81.45
61870;BME280;47810;42.264;23.826;2023-05-20T04:36:20;94046.50;;;11.43;80.61
61870;BME280;47810;42.264;23.826;2023-05-20T04:38:46;94054.19;;;11.73;77.86
61870;BME280;47810;42.264;23.826;2023-05-20T04:41:12;94047.94;;;11.74;80.09
61870;BME280;47810;42.264;23.826;2023-05-20T04:43:38;94044.84;;;11.95;78.22
61870;BME280;47810;42.264;23.826;2023-05-20T04:46:04;94050.16;;;12.07;76.66
61870;BME280;47810;42.264;23.826;2023-05-20T04:48:30;94050.38;;;12.17;79.91
61870;BME280;47810;42.264;23.826;2023-05-20T04:50:56;94061.59;;;12.33;80.04
61870;BME280;47810;42.264;23.826;2023-05-20T04:53:22;94063.91;;;12.51;79.21
61870;BME280;47810;42.264;23.826;2023-05-20T04:55:55;94065.19;;;12.58;79.26
61870;BME280;47810;42.264;23.826;2023-05-20T04:58:21;94062.84;;;12.66;78.49
61870;BME280;47810;42.264;23.826;2023-05-20T05:00:48;94081.69;;;12.74;78.13
61870;BME280;47810;42.264;23.826;2023-05-20T05:03:14;94086.34;;;12.83;76.85
61870;BME280;47810;42.264;23.826;2023-05-20T05:05:40;94092.53;;;12.71;77.62
61870;BME280;47810;42.264;23.826;2023-05-20T05:08:06;94096.94;;;12.96;77.37
61870;BME280;47810;42.264;23.826;2023-05-20T05:10:32;94094.00;;;12.88;78.25
61870;BME280;47810;42.264;23.826;2023-05-20T05:12:58;94103.22;;;12.82;77.64
61870;BME280;47810;42.264;23.826;2023-05-20T05:15:24;94109.06;;;12.75;80.07
61870;BME280;47810;42.264;23.826;2023-05-20T05:17:49;94106.81;;;12.81;77.56
61870;BME280;47810;42.264;23.826;2023-05-20T05:20:15;94107.75;;;12.55;76.34
61870;BME280;47810;42.264;23.826;2023-05-20T05:22:41;94102.47;;;12.29;78.58
61870;BME280;47810;42.264;23.826;2023-05-20T05:25:07;94097.63;;;12.62;77.33
61870;BME280;47810;42.264;23.826;2023-05-20T05:27:34;94102.03;;;12.74;75.39
61870;BME280;47810;42.264;23.826;2023-05-20T05:30:03;94087.22;;;12.71;74.44
61870;BME280;47810;42.264;23.826;2023-05-20T05:32:29;94083.63;;;12.72;74.55
61870;BME280;47810;42.264;23.826;2023-05-20T05:34:55;94087.44;;;12.81;74.50
61870;BME280;47810;42.264;23.826;2023-05-20T05:37:21;94085.19;;;12.88;73.48
61870;BME280;47810;42.264;23.826;2023-05-20T05:39:47;94090.56;;;12.99;73.35
61870;BME280;47810;42.264;23.826;2023-05-20T05:42:15;94077.84;;;13.04;73.14
61870;BME280;47810;42.264;23.826;2023-05-20T05:44:41;94083.22;;;13.15;74.16
61870;BME280;47810;42.264;23.826;2023-05-20T05:47:06;94085.25;;;13.24;73.98
61870;BME280;47810;42.264;23.826;2023-05-20T05:49:32;94069.00;;;13.53;73.23
61870;BME280;47810;42.264;23.826;2023-05-20T05:51:58;94074.41;;;13.64;71.93
61870;BME280;47810;42.264;23.826;2023-05-20T05:54:25;94071.91;;;13.74;73.05
61870;BME280;47810;42.264;23.826;2023-05-20T05:56:51;94066.44;;;13.99;72.06
61870;BME280;47810;42.264;23.826;2023-05-20T05:59:17;94065.41;;;14.13;72.43
61870;BME280;47810;42.264;23.826;2023-05-20T06:01:43;94056.03;;;14.32;72.48
61870;BME280;47810;42.264;23.826;2023-05-20T06:04:08;94053.28;;;14.44;73.56
61870;BME280;47810;42.264;23.826;2023-05-20T06:06:34;94063.81;;;14.57;71.56
61870;BME280;47810;42.264;23.826;2023-05-20T06:09:00;94065.53;;;14.70;71.56
61870;BME280;47810;42.264;23.826;2023-05-20T06:11:25;94057.81;;;14.78;70.81
61870;BME280;47810;42.264;23.826;2023-05-20T06:13:51;94060.81;;;14.96;67.65
61870;BME280;47810;42.264;23.826;2023-05-20T06:16:17;94060.91;;;15.05;67.67
61870;BME280;47810;42.264;23.826;2023-05-20T06:18:44;94059.25;;;15.16;66.85
61870;BME280;47810;42.264;23.826;2023-05-20T06:21:10;94060.41;;;15.34;66.52
61870;BME280;47810;42.264;23.826;2023-05-20T06:23:37;94054.34;;;15.43;65.41
61870;BME280;47810;42.264;23.826;2023-05-20T06:26:02;94049.22;;;15.63;65.03
61870;BME280;47810;42.264;23.826;2023-05-20T06:28:28;94053.31;;;15.78;65.79
61870;BME280;47810;42.264;23.826;2023-05-20T06:30:54;94048.16;;;15.97;64.24
61870;BME280;47810;42.264;23.826;2023-05-20T06:33:22;94045.94;;;16.23;68.73
61870;BME280;47810;42.264;23.826;2023-05-20T06:35:50;94045.69;;;16.26;69.24
61870;BME280;47810;42.264;23.826;2023-05-20T06:38:15;94040.50;;;16.25;70.25
61870;BME280;47810;42.264;23.826;2023-05-20T06:40:41;94046.53;;;16.27;70.38
61870;BME280;47810;42.264;23.826;2023-05-20T06:43:07;94035.81;;;16.38;70.52
61870;BME280;47810;42.264;23.826;2023-05-20T06:45:32;94039.47;;;16.37;69.27
61870;BME280;47810;42.264;23.826;2023-05-20T06:47:58;94030.19;;;16.62;68.81
61870;BME280;47810;42.264;23.826;2023-05-20T06:50:24;94029.09;;;16.65;69.32
61870;BME280;47810;42.264;23.826;2023-05-20T06:52:50;94030.97;;;16.74;68.85
61870;BME280;47810;42.264;23.826;2023-05-20T06:55:15;94034.13;;;16.79;67.66
61870;BME280;47810;42.264;23.826;2023-05-20T06:57:41;94041.19;;;16.90;66.92
61870;BME280;47810;42.264;23.826;2023-05-20T07:00:06;94030.09;;;16.94;65.76
61870;BME280;47810;42.264;23.826;2023-05-20T07:02:33;94040.91;;;16.93;61.60
61870;BME280;47810;42.264;23.826;2023-05-20T07:04:58;94035.63;;;17.03;61.23
61870;BME280;47810;42.264;23.826;2023-05-20T07:07:24;94038.63;;;17.19;60.62
61870;BME280;47810;42.264;23.826;2023-05-20T07:09:50;94040.75;;;17.25;61.92
61870;BME280;47810;42.264;23.826;2023-05-20T07:12:15;94031.81;;;17.45;60.55
61870;BME280;47810;42.264;23.826;2023-05-20T07:14:41;94027.50;;;17.64;60.13
61870;BME280;47810;42.264;23.826;2023-05-20T07:17:06;94027.66;;;17.72;61.58
61870;BME280;47810;42.264;23.826;2023-05-20T07:19:33;94022.47;;;17.80;59.25
61870;BME280;47810;42.264;23.826;2023-05-20T07:21:59;94009.13;;;18.00;62.46
61870;BME280;47810;42.264;23.826;2023-05-20T07:24:25;94016.13;;;18.10;61.77
61870;BME280;47810;42.264;23.826;2023-05-20T07:26:50;94022.34;;;18.21;58.40
61870;BME280;47810;42.264;23.826;2023-05-20T07:29:17;94021.63;;;18.28;59.26
61870;BME280;47810;42.264;23.826;2023-05-20T07:31:43;94024.81;;;18.42;60.34
61870;BME280;47810;42.264;23.826;2023-05-20T07:34:08;94023.66;;;18.63;57.97
61870;BME280;47810;42.264;23.826;2023-05-20T07:36:35;94034.63;;;18.70;59.09
61870;BME280;47810;42.264;23.826;2023-05-20T07:39:02;94028.25;;;18.91;55.24
61870;BME280;47810;42.264;23.826;2023-05-20T07:41:27;94037.78;;;19.03;55.76
61870;BME280;47810;42.264;23.826;2023-05-20T07:43:53;94033.63;;;19.18;58.50
61870;BME280;47810;42.264;23.826;2023-05-20T07:46:18;94032.75;;;19.27;54.66
61870;BME280;47810;42.264;23.826;2023-05-20T07:48:44;94034.63;;;19.45;52.23
61870;BME280;47810;42.264;23.826;2023-05-20T07:51:10;94025.03;;;19.52;47.35
61870;BME280;47810;42.264;23.826;2023-05-20T07:53:36;94026.78;;;19.61;53.11
61870;BME280;47810;42.264;23.826;2023-05-20T07:56:02;94020.09;;;19.75;51.21
61870;BME280;47810;42.264;23.826;2023-05-20T07:58:27;94019.03;;;19.58;48.35
61870;BME280;47810;42.264;23.826;2023-05-20T08:00:53;94021.84;;;19.66;50.79
61870;BME280;47810;42.264;23.826;2023-05-20T08:03:19;94021.78;;;20.12;48.24
61870;BME280;47810;42.264;23.826;2023-05-20T08:05:46;94019.75;;;20.50;48.11
61870;BME280;47810;42.264;23.826;2023-05-20T08:08:11;94017.09;;;20.32;48.43
61870;BME280;47810;42.264;23.826;2023-05-20T08:10:37;94012.50;;;20.42;44.85
61870;BME280;47810;42.264;23.826;2023-05-20T08:13:03;94018.38;;;20.89;49.81
61870;BME280;47810;42.264;23.826;2023-05-20T08:15:28;94021.94;;;20.28;44.75
61870;BME280;47810;42.264;23.826;2023-05-20T08:17:54;94019.91;;;20.66;46.91
61870;BME280;47810;42.264;23.826;2023-05-20T08:20:19;94015.47;;;20.57;43.97
61870;BME280;47810;42.264;23.826;2023-05-20T08:22:45;94010.75;;;21.03;45.60
61870;BME280;47810;42.264;23.826;2023-05-20T08:25:11;94000.19;;;21.35;43.24
61870;BME280;47810;42.264;23.826;2023-05-20T08:27:37;94008.44;;;21.42;42.33
61870;BME280;47810;42.264;23.826;2023-05-20T08:30:03;94001.88;;;21.36;42.60
61870;BME280;47810;42.264;23.826;2023-05-20T08:32:29;93998.72;;;20.81;45.38
61870;BME280;47810;42.264;23.826;2023-05-20T08:34:54;93998.25;;;21.20;43.82
61870;BME280;47810;42.264;23.826;2023-05-20T08:37:20;94001.72;;;21.46;45.56
61870;BME280;47810;42.264;23.826;2023-05-20T08:39:46;94003.97;;;20.90;42.78
61870;BME280;47810;42.264;23.826;2023-05-20T08:42:13;93999.56;;;20.55;47.65
61870;BME280;47810;42.264;23.826;2023-05-20T08:44:39;93994.91;;;20.65;45.27
61870;BME280;47810;42.264;23.826;2023-05-20T08:47:06;93990.25;;;20.67;47.32
61870;BME280;47810;42.264;23.826;2023-05-20T08:49:31;93992.84;;;20.85;47.26
61870;BME280;47810;42.264;23.826;2023-05-20T08:52:00;93983.84;;;21.29;46.58
61870;BME280;47810;42.264;23.826;2023-05-20T08:54:30;93976.19;;;22.17;47.61
61870;BME280;47810;42.264;23.826;2023-05-20T08:57:02;93975.69;;;22.30;47.48
61870;BME280;47810;42.264;23.826;2023-05-20T08:59:29;93977.09;;;23.14;45.32
61870;BME280;47810;42.264;23.826;2023-05-20T09:01:54;93989.56;;;23.55;41.07
61870;BME280;47810;42.264;23.826;2023-05-20T09:04:20;93986.88;;;23.07;41.01
61870;BME280;47810;42.264;23.826;2023-05-20T09:06:46;93983.91;;;23.33;44.21
61870;BME280;47810;42.264;23.826;2023-05-20T09:09:12;93984.31;;;23.14;40.95
61870;BME280;47810;42.264;23.826;2023-05-20T09:11:38;93975.66;;;22.95;40.91
61870;BME280;47810;42.264;23.826;2023-05-20T09:14:04;93977.97;;;22.98;43.25
61870;BME280;47810;42.264;23.826;2023-05-20T09:16:29;93971.59;;;22.83;43.01
61870;BME280;47810;42.264;23.826;2023-05-20T09:18:55;93968.78;;;22.44;42.67
61870;BME280;47810;42.264;23.826;2023-05-20T09:21:24;93964.28;;;22.44;44.59
61870;BME280;47810;42.264;23.826;2023-05-20T09:23:50;93966.91;;;21.87;41.90
61870;BME280;47810;42.264;23.826;2023-05-20T09:26:18;93972.66;;;22.17;43.53
61870;BME280;47810;42.264;23.826;2023-05-20T09:28:44;93960.56;;;22.21;43.61
61870;BME280;47810;42.264;23.826;2023-05-20T09:31:12;93960.56;;;22.29;45.09
61870;BME280;47810;42.264;23.826;2023-05-20T09:33:38;93968.19;;;21.58;47.08
61870;BME280;47810;42.264;23.826;2023-05-20T09:36:04;93959.41;;;21.40;48.78
61870;BME280;47810;42.264;23.826;2023-05-20T09:38:33;93943.78;;;21.01;50.67
61870;BME280;47810;42.264;23.826;2023-05-20T09:41:05;93950.44;;;20.89;50.29
61870;BME280;47810;42.264;23.826;2023-05-20T09:43:35;93958.06;;;20.67;50.91
61870;BME280;47810;42.264;23.826;2023-05-20T09:46:03;93957.72;;;20.70;51.61
61870;BME280;47810;42.264;23.826;2023-05-20T09:48:28;93963.38;;;19.34;53.33
61870;BME280;47810;42.264;23.826;2023-05-20T09:50:55;93963.69;;;19.76;56.08
61870;BME280;47810;42.264;23.826;2023-05-20T09:53:25;93963.41;;;19.52;55.86
61870;BME280;47810;42.264;23.826;2023-05-20T09:55:51;93973.13;;;19.53;55.09
61870;BME280;47810;42.264;23.826;2023-05-20T09:58:17;93973.03;;;19.72;54.54
61870;BME280;47810;42.264;23.826;2023-05-20T10:00:44;93966.06;;;19.34;57.29
61870;BME280;47810;42.264;23.826;2023-05-20T10:03:11;93964.81;;;18.63;59.86
61870;BME280;47810;42.264;23.826;2023-05-20T10:05:38;93968.34;;;17.78;64.14
61870;BME280;47810;42.264;23.826;2023-05-20T10:08:21;93981.47;;;17.12;66.90
61870;BME280;47810;42.264;23.826;2023-05-20T10:20:59;93978.69;;;17.52;67.20
61870;BME280;47810;42.264;23.826;2023-05-20T10:23:29;93984.59;;;17.46;67.20
61870;BME280;47810;42.264;23.826;2023-05-20T10:25:55;93988.81;;;17.58;67.10
61870;BME280;47810;42.264;23.826;2023-05-20T10:28:32;93997.56;;;17.70;66.88
61870;BME280;47810;42.264;23.826;2023-05-20T10:30:58;93980.41;;;17.43;65.55
61870;BME280;47810;42.264;23.826;2023-05-20T10:33:25;93970.50;;;17.05;66.92
61870;BME280;47810;42.264;23.826;2023-05-20T10:35:52;93977.78;;;17.13;69.12
61870;BME280;47810;42.264;23.826;2023-05-20T10:38:18;93986.81;;;17.21;70.66
61870;BME280;47810;42.264;23.826;2023-05-20T10:40:45;93985.75;;;16.93;71.05
61870;BME280;47810;42.264;23.826;2023-05-20T10:43:12;93976.84;;;17.33;68.60
61870;BME280;47810;42.264;23.826;2023-05-20T10:45:52;93978.16;;;17.68;67.97
61870;BME280;47810;42.264;23.826;2023-05-20T10:48:28;93981.38;;;17.62;68.88
61870;BME280;47810;42.264;23.826;2023-05-20T10:50:54;93966.91;;;17.55;66.05
61870;BME280;47810;42.264;23.826;2023-05-20T10:53:22;93979.72;;;17.90;65.75
61870;BME280;47810;42.264;23.826;2023-05-20T10:55:49;93979.50;;;18.50;64.91
61870;BME280;47810;42.264;23.826;2023-05-20T10:58:19;93977.72;;;18.88;62.89
61870;BME280;47810;42.264;23.826;2023-05-20T11:00:46;93969.34;;;19.73;61.57
61870;BME280;47810;42.264;23.826;2023-05-20T11:03:12;93970.38;;;20.52;57.83
61870;BME280;47810;42.264;23.826;2023-05-20T11:05:39;93964.47;;;20.75;52.83
61870;BME280;47810;42.264;23.826;2023-05-20T11:08:05;93966.72;;;20.17;52.90
61870;BME280;47810;42.264;23.826;2023-05-20T11:10:32;93962.66;;;20.13;56.05
61870;BME280;47810;42.264;23.826;2023-05-20T11:12:58;93959.69;;;20.16;56.24
61870;BME280;47810;42.264;23.826;2023-05-20T11:15:26;93971.63;;;20.04;56.56
61870;BME280;47810;42.264;23.826;2023-05-20T11:17:54;93966.41;;;20.02;54.11
61870;BME280;47810;42.264;23.826;2023-05-20T11:20:21;93967.06;;;19.78;56.70
61870;BME280;47810;42.264;23.826;2023-05-20T11:22:48;93967.53;;;19.46;56.86
61870;BME280;47810;42.264;23.826;2023-05-20T11:25:14;93967.81;;;18.98;55.67
61870;BME280;47810;42.264;23.826;2023-05-20T11:27:40;93956.53;;;19.04;52.55
61870;BME280;47810;42.264;23.826;2023-05-20T11:30:06;93958.16;;;19.15;57.02
61870;BME280;47810;42.264;23.826;2023-05-20T11:32:32;93961.00;;;19.03;55.65
61870;BME280;47810;42.264;23.826;2023-05-20T11:34:58;93947.91;;;19.10;58.51
61870;BME280;47810;42.264;23.826;2023-05-20T11:37:23;93946.25;;;18.99;60.97
61870;BME280;47810;42.264;23.826;2023-05-20T11:40:01;93940.69;;;18.83;63.32
61870;BME280;47810;42.264;23.826;2023-05-20T11:42:26;93945.72;;;18.49;66.01
61870;BME280;47810;42.264;23.826;2023-05-20T11:44:52;93930.09;;;17.87;66.12
61870;BME280;47810;42.264;23.826;2023-05-20T11:47:23;93932.66;;;17.89;68.92
61870;BME280;47810;42.264;23.826;2023-05-20T11:49:49;93927.28;;;18.08;67.00
61870;BME280;47810;42.264;23.826;2023-05-20T11:52:15;93926.81;;;18.13;66.48
61870;BME280;47810;42.264;23.826;2023-05-20T11:54:40;93921.47;;;18.13;65.85
61870;BME280;47810;42.264;23.826;2023-05-20T11:57:06;93926.09;;;18.30;66.16
61870;BME280;47810;42.264;23.826;2023-05-20T11:59:32;93915.50;;;17.91;65.20
61870;BME280;47810;42.264;23.826;2023-05-20T12:01:57;93926.81;;;18.13;66.81
61870;BME280;47810;42.264;23.826;2023-05-20T12:04:23;93927.41;;;18.54;66.28
61870;BME280;47810;42.264;23.826;2023-05-20T12:06:48;93938.06;;;18.63;66.50
61870;BME280;47810;42.264;23.826;2023-05-20T12:09:14;93940.94;;;18.52;66.09
61870;BME280;47810;42.264;23.826;2023-05-20T12:11:40;93943.59;;;18.62;66.59
61870;BME280;47810;42.264;23.826;2023-05-20T12:14:06;93945.13;;;18.55;66.02
61870;BME280;47810;42.264;23.826;2023-05-20T12:16:32;93942.28;;;18.66;65.49
61870;BME280;47810;42.264;23.826;2023-05-20T12:18:58;93947.00;;;18.45;66.41
61870;BME280;47810;42.264;23.826;2023-05-20T12:21:24;93949.66;;;18.54;67.47
61870;BME280;47810;42.264;23.826;2023-05-20T12:23:49;93957.44;;;18.38;65.69
61870;BME280;47810;42.264;23.826;2023-05-20T12:26:15;93956.88;;;18.34;67.13
61870;BME280;47810;42.264;23.826;2023-05-20T12:28:41;93958.63;;;18.63;65.87
61870;BME280;47810;42.264;23.826;2023-05-20T12:31:06;93949.41;;;19.13;62.21
61870;BME280;47810;42.264;23.826;2023-05-20T12:33:32;93939.91;;;19.00;59.12
61870;BME280;47810;42.264;23.826;2023-05-20T12:35:57;93934.53;;;19.10;58.57
61870;BME280;47810;42.264;23.826;2023-05-20T12:38:23;93931.28;;;19.52;57.70
61870;BME280;47810;42.264;23.826;2023-05-20T12:40:49;93928.47;;;19.71;57.85
61870;BME280;47810;42.264;23.826;2023-05-20T12:43:15;93936.84;;;20.12;56.31
61870;BME280;47810;42.264;23.826;2023-05-20T12:45:40;93933.22;;;20.21;56.36
61870;BME280;47810;42.264;23.826;2023-05-20T12:48:07;93936.34;;;20.35;56.19
61870;BME280;47810;42.264;23.826;2023-05-20T12:50:32;93924.94;;;20.33;53.95
61870;BME280;47810;42.264;23.826;2023-05-20T12:52:58;93911.94;;;20.20;55.17
61870;BME280;47810;42.264;23.826;2023-05-20T12:55:56;93912.03;;;19.84;54.41